Time;durP1;ratioP1;P1;durP2;ratioP2;P2;SDS_P1;SDS_P2;PMS_P1;PMS_P2;Temp;Humidity;BMP_temperature;BMP_pressure;BME280_temperature;BME280_humidity;BME280_pressure;Samples;Min_cycle;Max_cycle;Signal;HPM_P1;HPM_P2
2021/01/24 00:01:05;;;;;;;18.63;11.80;;;1.10;99.90;;;;;;6940160;28;20411;-64
2021/01/24 00:04:26;;;;;;;18.77;11.65;;;1.00;99.90;;;;;;6935767;28;20403;-62
2021/01/24 00:07:47;;;;;;;17.80;11.85;;;0.90;99.90;;;;;;6951252;28;20901;-64
2021/01/24 00:11:08;;;;;;;16.00;10.90;;;0.90;99.90;;;;;;6936134;28;20415;-63
2021/01/24 00:14:29;;;;;;;19.30;11.90;;;1.00;99.90;;;;;;6935329;28;20427;-63
2021/01/24 00:17:49;;;;;;;17.73;11.82;;;1.00;99.90;;;;;;6951761;28;20413;-64
2021/01/24 00:21:10;;;;;;;17.35;11.68;;;0.90;99.90;;;;;;6942768;28;20508;-63
2021/01/24 00:24:31;;;;;;;16.80;11.00;;;0.80;99.90;;;;;;6933231;28;20457;-63
2021/01/24 00:27:52;;;;;;;17.00;11.70;;;0.90;99.90;;;;;;6944312;28;20550;-63
2021/01/24 00:31:13;;;;;;;18.23;11.60;;;1.00;99.90;;;;;;6938205;28;20457;-63
2021/01/24 00:34:33;;;;;;;19.93;13.30;;;1.00;99.90;;;;;;6932612;28;20407;-64
2021/01/24 00:37:54;;;;;;;17.67;11.52;;;1.10;99.90;;;;;;6934525;28;20457;-62
2021/01/24 00:41:16;;;;;;;17.00;11.90;;;1.00;99.90;;;;;;6943731;28;20425;-64
2021/01/24 00:44:36;;;;;;;17.35;11.55;;;0.90;99.90;;;;;;6948363;28;20408;-64
2021/01/24 00:47:57;;;;;;;18.60;12.50;;;1.00;99.90;;;;;;6943128;28;20543;-64
2021/01/24 00:51:18;;;;;;;19.33;12.27;;;1.00;99.90;;;;;;6960914;28;20407;-64
2021/01/24 00:54:39;;;;;;;18.23;12.23;;;1.20;99.90;;;;;;6935990;28;20415;-64
2021/01/24 00:58:01;;;;;;;19.77;13.02;;;1.10;99.90;;;;;;6944002;28;20408;-63
2021/01/24 01:01:22;;;;;;;20.63;13.85;;;1.30;99.90;;;;;;6951436;28;20416;-63
2021/01/24 01:04:43;;;;;;;21.05;13.55;;;1.20;99.90;;;;;;6956168;28;20506;-62
2021/01/24 01:08:04;;;;;;;23.02;14.75;;;1.20;99.90;;;;;;6955361;28;20407;-63
2021/01/24 01:11:25;;;;;;;23.90;14.40;;;1.30;99.90;;;;;;6953957;28;20412;-62
2021/01/24 01:14:46;;;;;;;19.77;13.38;;;1.40;99.90;;;;;;6939700;28;20404;-62
2021/01/24 01:18:06;;;;;;;21.15;13.40;;;1.40;99.90;;;;;;6947494;28;20429;-64
2021/01/24 01:21:27;;;;;;;19.92;13.90;;;1.40;99.90;;;;;;6944992;28;20421;-63
2021/01/24 01:24:48;;;;;;;20.00;13.20;;;1.30;99.90;;;;;;6929400;28;20411;-61
2021/01/24 01:28:09;;;;;;;20.03;13.80;;;1.30;99.90;;;;;;6949410;28;20968;-61
2021/01/24 01:31:30;;;;;;;20.47;12.70;;;1.30;99.90;;;;;;6947358;28;20498;-63
2021/01/24 01:34:51;;;;;;;19.67;12.85;;;1.30;99.90;;;;;;6948468;28;20932;-63
2021/01/24 01:38:12;;;;;;;18.93;13.10;;;1.20;99.90;;;;;;6947347;28;20934;-63
2021/01/24 01:41:34;;;;;;;18.77;12.93;;;1.20;99.90;;;;;;6951567;28;20447;-64
2021/01/24 01:44:55;;;;;;;19.57;12.50;;;1.10;99.90;;;;;;6934138;28;20393;-65
2021/01/24 01:48:17;;;;;;;18.33;12.07;;;1.10;99.90;;;;;;6958434;28;20506;-64
2021/01/24 01:51:38;;;;;;;16.63;11.60;;;1.10;99.90;;;;;;6950156;28;20403;-65
2021/01/24 01:54:59;;;;;;;19.67;12.60;;;1.10;99.90;;;;;;6963754;28;20468;-64
2021/01/24 01:58:19;;;;;;;19.77;12.67;;;1.20;99.90;;;;;;6950012;28;20506;-64
2021/01/24 02:02:02;;;;;;;18.75;12.63;;;1.20;99.90;;;;;;6949284;28;20412;-65
2021/01/24 02:05:35;;;;;;;17.30;11.87;;;1.20;99.90;;;;;;6945799;28;20412;-65
2021/01/24 02:09:15;;;;;;;21.53;13.73;;;1.10;99.90;;;;;;6940772;28;20742;-64
2021/01/24 02:12:47;;;;;;;17.88;12.38;;;1.30;99.90;;;;;;6947513;28;20397;-65
2021/01/24 02:16:10;;;;;;;19.65;12.63;;;1.10;99.90;;;;;;6932211;28;20555;-65
2021/01/24 02:20:08;;;;;;;19.45;12.88;;;1.10;99.90;;;;;;6945802;28;20442;-64
2021/01/24 02:23:31;;;;;;;23.63;15.10;;;1.00;99.90;;;;;;6951774;28;20419;-65
2021/01/24 02:27:02;;;;;;;23.33;15.32;;;1.00;99.90;;;;;;6942455;28;20835;-65
2021/01/24 02:30:27;;;;;;;25.17;16.33;;;1.10;99.90;;;;;;6935075;28;20425;-64
2021/01/24 02:33:50;;;;;;;27.05;17.42;;;1.10;99.90;;;;;;6949215;28;20403;-63
2021/01/24 02:37:11;;;;;;;30.92;17.70;;;1.20;99.90;;;;;;6949322;28;20427;-65
2021/01/24 02:40:36;;;;;;;26.05;17.13;;;1.30;99.90;;;;;;6945923;28;20456;-64
2021/01/24 02:43:57;;;;;;;26.52;16.92;;;1.40;99.90;;;;;;6938787;28;20764;-65
2021/01/24 02:47:19;;;;;;;26.70;17.27;;;1.30;99.90;;;;;;6938270;28;20500;-65
2021/01/24 02:50:41;;;;;;;26.55;17.35;;;1.20;99.90;;;;;;6934621;28;20451;-65
2021/01/24 02:54:03;;;;;;;27.80;17.90;;;1.30;99.90;;;;;;6951518;28;20407;-65
2021/01/24 02:57:24;;;;;;;30.90;18.83;;;1.40;99.90;;;;;;6929773;28;20394;-65
2021/01/24 03:00:45;;;;;;;29.33;17.50;;;1.50;99.90;;;;;;6952297;28;20736;-63
2021/01/24 03:04:06;;;;;;;26.60;17.30;;;1.40;99.90;;;;;;6947382;28;20411;-63
2021/01/24 03:07:28;;;;;;;27.10;17.27;;;1.40;99.90;;;;;;6947134;28;20752;-63
2021/01/24 03:10:49;;;;;;;25.67;16.02;;;1.40;99.90;;;;;;6944653;28;20409;-64
2021/01/24 03:14:16;;;;;;;27.35;17.90;;;1.40;99.90;;;;;;6940106;28;20412;-64
2021/01/24 03:17:38;;;;;;;25.23;17.20;;;1.40;99.90;;;;;;6944221;28;20510;-64
2021/01/24 03:21:01;;;;;;;27.73;17.73;;;1.50;99.90;;;;;;6942375;28;20782;-64
2021/01/24 03:24:23;;;;;;;27.90;17.98;;;1.50;99.90;;;;;;6945170;28;20404;-64
2021/01/24 03:27:44;;;;;;;28.00;18.17;;;1.50;99.90;;;;;;6934206;28;20465;-64
2021/01/24 03:31:06;;;;;;;26.83;18.20;;;1.60;99.90;;;;;;6943542;28;20403;-64
2021/01/24 03:34:27;;;;;;;26.90;18.27;;;1.60;99.90;;;;;;6939779;28;20432;-63
2021/01/24 03:37:48;;;;;;;28.98;18.80;;;1.70;99.90;;;;;;6943517;28;20764;-64
2021/01/24 03:41:09;;;;;;;27.33;17.58;;;1.70;99.90;;;;;;6943602;28;20754;-63
2021/01/24 03:44:30;;;;;;;30.80;19.05;;;1.70;99.90;;;;;;6929008;28;20402;-64
2021/01/24 03:47:50;;;;;;;27.77;18.67;;;1.80;99.90;;;;;;6952385;28;20496;-64
2021/01/24 03:51:11;;;;;;;30.20;18.10;;;1.70;99.90;;;;;;6941685;28;20833;-64
2021/01/24 03:54:32;;;;;;;28.83;18.10;;;1.70;99.90;;;;;;6931295;28;20424;-64
2021/01/24 03:57:53;;;;;;;30.05;18.85;;;1.70;99.90;;;;;;6939728;28;20412;-64
2021/01/24 04:01:14;;;;;;;27.90;18.23;;;1.70;99.90;;;;;;6944229;28;20505;-63
2021/01/24 04:04:35;;;;;;;28.17;18.83;;;1.70;99.90;;;;;;6936074;28;20413;-64
2021/01/24 04:07:56;;;;;;;28.30;19.00;;;1.80;99.90;;;;;;6959686;28;20397;-64
2021/01/24 04:11:17;;;;;;;28.23;19.30;;;1.80;99.90;;;;;;6928546;28;20407;-64
2021/01/24 04:14:38;;;;;;;29.13;18.10;;;1.90;99.90;;;;;;6947462;28;20787;-63
2021/01/24 04:17:59;;;;;;;27.77;19.77;;;1.80;99.90;;;;;;6946588;28;20422;-63
2021/01/24 04:21:19;;;;;;;29.60;19.65;;;1.80;99.90;;;;;;6931256;28;20417;-63
2021/01/24 04:24:40;;;;;;;29.83;19.13;;;1.80;99.90;;;;;;6937193;28;20420;-64
2021/01/24 04:28:01;;;;;;;28.53;18.80;;;1.80;99.90;;;;;;6932852;28;20764;-64
2021/01/24 04:31:23;;;;;;;27.42;19.00;;;1.80;99.90;;;;;;6940752;28;20430;-63
2021/01/24 04:34:43;;;;;;;30.13;18.67;;;1.70;99.90;;;;;;6968443;28;20764;-65
2021/01/24 04:38:04;;;;;;;28.13;17.57;;;1.70;99.90;;;;;;6944080;28;20412;-64
2021/01/24 04:41:26;;;;;;;24.33;17.73;;;1.70;99.90;;;;;;6962258;28;20423;-64
2021/01/24 04:44:47;;;;;;;27.70;18.00;;;1.80;99.90;;;;;;6967685;28;20441;-64
2021/01/24 04:48:10;;;;;;;26.95;18.15;;;1.90;99.90;;;;;;6938911;28;20733;-65
2021/01/24 04:51:31;;;;;;;26.45;17.58;;;2.00;99.90;;;;;;6940919;28;20784;-64
2021/01/24 04:54:52;;;;;;;26.25;17.98;;;2.00;99.90;;;;;;6949747;28;20895;-65
2021/01/24 04:58:13;;;;;;;27.30;18.02;;;2.00;99.90;;;;;;6943337;28;20521;-64
2021/01/24 05:01:38;;;;;;;26.77;18.10;;;1.80;99.90;;;;;;6956297;28;20409;-65
2021/01/24 05:05:00;;;;;;;27.93;18.30;;;1.90;99.90;;;;;;6939566;28;20432;-64
2021/01/24 05:08:22;;;;;;;25.02;17.48;;;1.90;99.90;;;;;;6946025;28;20413;-65
2021/01/24 05:11:49;;;;;;;27.13;18.45;;;1.70;99.90;;;;;;6937695;28;20397;-64
2021/01/24 05:15:10;;;;;;;27.38;17.75;;;1.80;99.90;;;;;;6951986;28;20479;-64
2021/01/24 05:18:31;;;;;;;26.17;17.88;;;1.90;99.90;;;;;;6935566;28;20904;-63
2021/01/24 05:21:52;;;;;;;26.50;17.42;;;2.00;99.90;;;;;;6948119;28;20788;-64
2021/01/24 05:25:17;;;;;;;27.60;18.23;;;1.90;99.90;;;;;;6964320;28;20398;-64
2021/01/24 05:28:47;;;;;;;27.48;18.17;;;1.90;99.90;;;;;;6954781;28;20507;-65
2021/01/24 05:32:09;;;;;;;30.33;19.50;;;1.90;99.90;;;;;;6924210;28;20918;-64
2021/01/24 05:35:29;;;;;;;28.98;19.05;;;1.80;99.90;;;;;;6922231;28;20422;-64
2021/01/24 05:38:53;;;;;;;30.42;19.48;;;1.90;99.90;;;;;;6941148;28;20399;-64
2021/01/24 05:42:16;;;;;;;28.95;19.52;;;1.90;99.90;;;;;;6925738;28;20415;-64
2021/01/24 05:45:37;;;;;;;28.37;18.90;;;1.90;99.90;;;;;;6922391;28;20404;-64
2021/01/24 05:48:59;;;;;;;26.90;17.88;;;1.80;99.90;;;;;;6922630;28;20891;-65
2021/01/24 05:52:20;;;;;;;27.00;18.35;;;1.80;99.90;;;;;;6934870;28;20431;-64
2021/01/24 05:55:42;;;;;;;24.85;17.98;;;1.80;99.90;;;;;;6928857;28;20887;-65
2021/01/24 05:59:03;;;;;;;27.83;17.85;;;1.90;99.90;;;;;;6920382;28;20425;-65
2021/01/24 06:02:26;;;;;;;27.55;17.75;;;2.00;99.90;;;;;;6934217;28;20412;-65
2021/01/24 06:05:47;;;;;;;26.17;18.30;;;2.10;99.90;;;;;;6915288;28;20408;-64
2021/01/24 06:09:08;;;;;;;26.55;18.15;;;1.90;99.90;;;;;;6930345;28;20440;-62
2021/01/24 06:12:30;;;;;;;28.55;18.42;;;1.90;99.90;;;;;;6918951;28;20929;-64
2021/01/24 06:15:59;;;;;;;28.55;18.50;;;2.00;99.90;;;;;;6947937;28;20753;-64
2021/01/24 06:19:23;;;;;;;24.45;17.27;;;1.90;99.90;;;;;;6955350;28;20410;-64
2021/01/24 06:23:00;;;;;;;28.15;19.15;;;1.80;99.90;;;;;;6945461;28;20424;-65
2021/01/24 06:26:23;;;;;;;32.17;20.70;;;1.80;99.90;;;;;;6935929;28;20417;-64
2021/01/24 06:29:47;;;;;;;27.55;18.80;;;2.10;99.90;;;;;;6935275;28;20493;-63
2021/01/24 06:33:19;;;;;;;30.63;19.88;;;2.00;99.90;;;;;;6927648;28;20458;-64
2021/01/24 06:37:10;;;;;;;27.58;19.30;;;1.90;99.90;;;;;;6930207;28;20914;-62
2021/01/24 06:40:32;;;;;;;32.58;20.33;;;2.10;99.90;;;;;;6931016;28;20450;-63
2021/01/24 06:43:53;;;;;;;27.80;18.83;;;2.30;99.90;;;;;;6934505;28;20417;-65
2021/01/24 06:47:41;;;;;;;26.40;17.88;;;2.20;99.90;;;;;;6923994;28;20411;-62
2021/01/24 06:51:02;;;;;;;28.13;19.30;;;2.10;99.90;;;;;;6930212;28;20915;-64
2021/01/24 06:54:29;;;;;;;29.33;19.20;;;2.20;99.90;;;;;;6935616;28;20417;-64
2021/01/24 06:57:49;;;;;;;29.60;19.85;;;2.30;99.90;;;;;;6943205;28;20404;-64
2021/01/24 07:01:27;;;;;;;28.13;19.20;;;2.10;99.90;;;;;;6922109;28;20416;-64
2021/01/24 07:05:16;;;;;;;29.60;18.40;;;2.10;99.90;;;;;;6946290;28;20404;-63
2021/01/24 07:08:36;;;;;;;27.30;18.42;;;2.20;99.90;;;;;;6937410;28;20401;-64
2021/01/24 07:12:04;;;;;;;27.00;18.80;;;2.10;99.90;;;;;;6936347;28;20423;-65
2021/01/24 07:15:25;;;;;;;28.33;18.73;;;2.20;99.90;;;;;;6927359;28;20465;-65
2021/01/24 07:18:46;;;;;;;26.95;18.55;;;2.20;99.90;;;;;;6914893;28;20412;-64
2021/01/24 07:22:07;;;;;;;28.60;18.60;;;2.10;99.90;;;;;;6924180;28;20429;-64
2021/01/24 07:25:28;;;;;;;25.80;17.70;;;2.10;99.90;;;;;;6931709;28;20427;-64
2021/01/24 07:28:49;;;;;;;26.13;17.67;;;2.20;99.90;;;;;;6927025;28;20484;-65
2021/01/24 07:32:10;;;;;;;29.63;18.23;;;2.10;99.90;;;;;;6943398;28;20434;-65
2021/01/24 07:35:35;;;;;;;26.83;18.00;;;2.10;99.90;;;;;;6930143;28;20918;-64
2021/01/24 07:38:56;;;;;;;27.73;18.77;;;2.10;99.90;;;;;;6916974;28;20413;-64
2021/01/24 07:42:18;;;;;;;28.52;18.17;;;2.00;99.90;;;;;;6934055;28;20411;-64
2021/01/24 07:45:39;;;;;;;30.40;19.10;;;2.10;99.90;;;;;;6923452;28;20406;-64
2021/01/24 07:49:00;;;;;;;29.40;19.57;;;2.20;99.90;;;;;;6923371;28;20476;-63
2021/01/24 07:52:21;;;;;;;30.05;19.45;;;2.20;99.90;;;;;;6928145;28;20427;-63
2021/01/24 07:55:43;;;;;;;29.20;19.00;;;2.20;99.90;;;;;;6925856;28;20414;-62
2021/01/24 07:59:04;;;;;;;28.90;19.10;;;2.20;99.90;;;;;;6926598;28;20413;-63
2021/01/24 08:02:28;;;;;;;27.70;18.00;;;2.20;99.90;;;;;;6933696;28;20426;-63
2021/01/24 08:05:49;;;;;;;28.73;18.07;;;2.10;99.90;;;;;;6931531;28;20490;-63
2021/01/24 08:09:10;;;;;;;28.37;18.90;;;2.20;99.90;;;;;;6943201;28;20406;-62
2021/01/24 08:12:31;;;;;;;29.73;18.63;;;2.30;99.90;;;;;;6938811;28;20394;-64
2021/01/24 08:15:53;;;;;;;30.45;19.60;;;2.40;99.90;;;;;;6939189;28;20494;-64
2021/01/24 08:19:17;;;;;;;29.33;19.60;;;2.40;99.90;;;;;;6946518;28;20887;-64
2021/01/24 08:22:38;;;;;;;32.65;21.50;;;2.30;99.90;;;;;;6933021;28;20418;-62
2021/01/24 08:25:59;;;;;;;30.60;19.50;;;2.40;99.90;;;;;;6927957;28;20415;-65
2021/01/24 08:29:20;;;;;;;31.80;21.80;;;2.50;99.90;;;;;;6951778;28;20398;-64
2021/01/24 08:32:42;;;;;;;30.00;20.35;;;2.50;99.90;;;;;;6940129;28;20442;-65
2021/01/24 08:36:15;;;;;;;27.90;18.85;;;2.70;99.90;;;;;;6933428;28;20411;-63
2021/01/24 08:39:36;;;;;;;31.58;20.15;;;2.60;99.90;;;;;;6941356;28;20919;-64
2021/01/24 08:42:57;;;;;;;29.02;19.30;;;2.60;99.90;;;;;;6937758;28;21175;-63
2021/01/24 08:46:23;;;;;;;28.42;18.40;;;2.70;99.90;;;;;;6930010;28;20410;-64
2021/01/24 08:49:44;;;;;;;30.52;19.42;;;2.70;99.90;;;;;;6925802;28;20415;-64
2021/01/24 08:53:07;;;;;;;29.80;19.90;;;2.70;99.90;;;;;;6935108;28;20415;-63
2021/01/24 08:56:27;;;;;;;29.85;19.90;;;2.80;99.90;;;;;;6937101;28;20483;-65
2021/01/24 08:59:48;;;;;;;28.95;19.38;;;2.80;99.90;;;;;;6929808;28;20413;-66
2021/01/24 09:03:24;;;;;;;29.60;19.50;;;2.70;99.90;;;;;;6922261;28;20547;-66
2021/01/24 09:07:09;;;;;;;29.40;19.95;;;2.70;99.90;;;;;;6918761;28;20455;-66
2021/01/24 09:10:31;;;;;;;27.80;19.45;;;2.80;99.90;;;;;;6939661;28;20412;-65
2021/01/24 09:13:53;;;;;;;29.13;18.58;;;2.90;99.90;;;;;;6924339;28;20506;-65
2021/01/24 09:17:16;;;;;;;27.65;18.67;;;2.90;99.90;;;;;;6921289;28;20447;-65
2021/01/24 09:20:37;;;;;;;27.05;18.30;;;3.00;99.90;;;;;;6931645;28;20411;-63
2021/01/24 09:23:57;;;;;;;26.65;18.55;;;3.10;99.90;;;;;;6921744;28;20510;-66
2021/01/24 09:27:18;;;;;;;28.90;18.23;;;3.00;99.90;;;;;;6920871;28;21403;-66
2021/01/24 09:30:39;;;;;;;29.57;18.10;;;3.30;99.90;;;;;;6941966;28;20418;-64
2021/01/24 09:34:00;;;;;;;26.05;17.90;;;3.20;99.90;;;;;;6930232;28;20461;-65
2021/01/24 09:37:21;;;;;;;26.67;18.30;;;3.20;99.90;;;;;;6939982;28;20901;-66
2021/01/24 09:40:41;;;;;;;25.17;18.40;;;3.30;99.90;;;;;;6920537;28;20731;-65
2021/01/24 09:44:03;;;;;;;25.45;17.75;;;3.20;99.90;;;;;;6947764;28;20772;-65
2021/01/24 09:47:24;;;;;;;27.83;18.90;;;3.30;99.90;;;;;;6925483;28;20842;-65
2021/01/24 09:50:45;;;;;;;25.85;17.98;;;3.30;99.90;;;;;;6928888;28;20402;-65
2021/01/24 09:54:05;;;;;;;59.83;36.92;;;3.70;99.90;;;;;;6882334;28;1258152;-66
2021/01/24 09:57:27;;;;;;;31.93;21.10;;;3.80;99.90;;;;;;6932240;28;20399;-66
2021/01/24 10:00:47;;;;;;;26.83;19.17;;;3.80;99.90;;;;;;6970806;28;20532;-65
2021/01/24 10:04:09;;;;;;;27.23;18.38;;;3.90;99.90;;;;;;6937394;28;20405;-65
2021/01/24 10:07:29;;;;;;;25.65;18.00;;;3.80;99.90;;;;;;6949251;28;20414;-62
2021/01/24 10:10:50;;;;;;;25.40;17.33;;;3.80;99.90;;;;;;6939426;28;20763;-63
2021/01/24 10:14:11;;;;;;;25.90;17.67;;;4.10;99.90;;;;;;6941415;28;20402;-64
2021/01/24 10:17:32;;;;;;;25.40;17.10;;;4.20;99.90;;;;;;6924403;28;20502;-65
2021/01/24 10:20:53;;;;;;;23.77;16.33;;;4.20;99.90;;;;;;6922324;28;20423;-65
2021/01/24 10:24:14;;;;;;;23.33;16.60;;;4.00;99.90;;;;;;6937413;28;20410;-65
2021/01/24 10:27:35;;;;;;;24.40;17.17;;;4.10;99.90;;;;;;6923374;28;20900;-65
2021/01/24 10:30:55;;;;;;;23.00;16.15;;;4.20;99.90;;;;;;6925234;28;20434;-65
2021/01/24 10:34:16;;;;;;;23.20;16.65;;;3.90;99.90;;;;;;6940167;28;20407;-65
2021/01/24 10:37:37;;;;;;;25.27;17.20;;;3.90;99.90;;;;;;6928054;28;20411;-65
2021/01/24 10:40:58;;;;;;;21.65;15.20;;;4.00;99.90;;;;;;6920435;28;20863;-65
2021/01/24 10:44:19;;;;;;;20.95;15.40;;;3.90;99.90;;;;;;6929736;28;20419;-64
2021/01/24 10:47:40;;;;;;;22.07;15.33;;;3.90;99.90;;;;;;6944838;28;20438;-64
2021/01/24 10:51:01;;;;;;;23.00;15.93;;;4.20;99.90;;;;;;6942478;28;20553;-64
2021/01/24 10:54:22;;;;;;;20.00;14.98;;;4.30;99.90;;;;;;6919141;28;20410;-64
2021/01/24 10:57:42;;;;;;;21.00;14.80;;;4.00;99.90;;;;;;6927997;28;20859;-64
2021/01/24 11:01:04;;;;;;;20.63;14.48;;;4.00;99.90;;;;;;6933388;28;22911;-62
2021/01/24 11:04:25;;;;;;;20.35;13.93;;;3.80;99.90;;;;;;6938536;28;20443;-65
2021/01/24 11:07:45;;;;;;;19.58;13.98;;;3.70;99.90;;;;;;6961001;28;20406;-65
2021/01/24 11:11:06;;;;;;;28.17;20.43;;;3.80;99.90;;;;;;6940054;28;20465;-65
2021/01/24 11:14:27;;;;;;;19.27;13.40;;;3.80;99.90;;;;;;6914520;28;20954;-65
2021/01/24 11:17:48;;;;;;;18.90;13.60;;;3.70;99.90;;;;;;6925185;28;20542;-65
2021/01/24 11:21:09;;;;;;;20.65;14.45;;;3.60;99.90;;;;;;6957015;28;20442;-65
2021/01/24 11:24:30;;;;;;;21.77;14.50;;;3.60;99.90;;;;;;6930245;28;21223;-64
2021/01/24 11:27:51;;;;;;;20.58;14.13;;;3.50;99.90;;;;;;6924899;28;20411;-65
2021/01/24 11:31:12;;;;;;;20.85;14.20;;;3.50;99.90;;;;;;6931419;28;20899;-65
2021/01/24 11:34:33;;;;;;;20.77;14.20;;;3.50;99.90;;;;;;6946271;28;20404;-64
2021/01/24 11:37:53;;;;;;;19.27;13.40;;;3.50;99.90;;;;;;6929931;28;20417;-65
2021/01/24 11:41:14;;;;;;;21.37;15.00;;;3.60;99.90;;;;;;6938209;28;20515;-64
2021/01/24 11:44:35;;;;;;;21.50;14.80;;;3.60;99.90;;;;;;6939185;28;20467;-65
2021/01/24 11:47:56;;;;;;;21.90;15.40;;;3.40;99.90;;;;;;6941401;28;20856;-65
2021/01/24 11:51:17;;;;;;;21.88;14.88;;;3.50;99.90;;;;;;6952185;28;20469;-64
2021/01/24 11:54:38;;;;;;;20.98;15.30;;;3.60;99.90;;;;;;6923232;28;20429;-65
2021/01/24 11:57:59;;;;;;;24.53;16.50;;;3.60;99.90;;;;;;6931962;28;20399;-65
2021/01/24 12:01:20;;;;;;;23.07;15.87;;;3.60;99.90;;;;;;6921292;28;20420;-64
2021/01/24 12:04:40;;;;;;;22.60;15.35;;;3.60;99.90;;;;;;6933299;28;20459;-64
2021/01/24 12:08:01;;;;;;;22.80;15.93;;;3.60;99.90;;;;;;6935593;28;20416;-62
2021/01/24 12:11:22;;;;;;;23.92;15.80;;;3.70;99.90;;;;;;6923532;28;20408;-64
2021/01/24 12:14:43;;;;;;;23.67;16.30;;;3.70;99.90;;;;;;6926284;28;20401;-65
2021/01/24 12:18:04;;;;;;;24.08;16.85;;;3.70;99.90;;;;;;6948867;28;20991;-64
2021/01/24 12:21:25;;;;;;;23.75;16.25;;;3.80;99.90;;;;;;6916853;28;20415;-65
2021/01/24 12:24:45;;;;;;;25.60;16.38;;;3.80;99.90;;;;;;6914707;28;20445;-64
2021/01/24 12:28:06;;;;;;;24.10;16.33;;;3.70;99.90;;;;;;6924918;28;20403;-65
2021/01/24 12:31:27;;;;;;;25.70;17.50;;;3.60;99.90;;;;;;6938576;28;20453;-63
2021/01/24 12:34:48;;;;;;;23.97;17.33;;;3.70;99.90;;;;;;6925430;28;20453;-64
2021/01/24 12:38:09;;;;;;;24.30;17.80;;;3.60;99.90;;;;;;6939241;28;20460;-64
2021/01/24 12:41:30;;;;;;;26.65;18.55;;;3.50;99.90;;;;;;6957776;28;20515;-63
2021/01/24 12:44:51;;;;;;;25.90;17.42;;;3.60;99.90;;;;;;6931727;28;20956;-64
2021/01/24 12:48:12;;;;;;;27.67;18.27;;;3.70;99.90;;;;;;6962774;28;20434;-64
2021/01/24 12:51:32;;;;;;;25.70;17.87;;;3.60;99.90;;;;;;6942354;28;20411;-65
2021/01/24 12:54:53;;;;;;;26.80;18.20;;;3.60;99.90;;;;;;6937727;28;20561;-65
2021/01/24 12:58:14;;;;;;;28.38;18.77;;;3.50;99.90;;;;;;6945172;28;20769;-64
2021/01/24 13:01:35;;;;;;;26.88;17.90;;;3.50;99.90;;;;;;6937788;28;21047;-63
2021/01/24 13:04:56;;;;;;;27.13;18.70;;;3.50;99.90;;;;;;6955117;28;20400;-64
2021/01/24 13:08:17;;;;;;;26.80;18.20;;;3.50;99.90;;;;;;6927779;28;20412;-63
2021/01/24 13:11:37;;;;;;;28.87;18.27;;;3.50;99.90;;;;;;6950624;28;20413;-63
2021/01/24 13:14:58;;;;;;;27.10;18.77;;;3.50;99.90;;;;;;6925382;28;20411;-63
2021/01/24 13:18:19;;;;;;;28.10;18.80;;;3.60;99.90;;;;;;6962425;28;20400;-64
2021/01/24 13:21:40;;;;;;;28.23;18.88;;;3.60;99.90;;;;;;6951262;28;20413;-65
2021/01/24 13:25:01;;;;;;;24.77;17.58;;;3.60;99.90;;;;;;6940147;28;20498;-64
2021/01/24 13:28:22;;;;;;;25.80;17.97;;;3.70;99.90;;;;;;6923404;28;20409;-64
2021/01/24 13:31:43;;;;;;;26.47;17.87;;;3.70;99.90;;;;;;6927904;28;20409;-64
2021/01/24 13:35:04;;;;;;;27.33;18.07;;;3.60;99.90;;;;;;6926750;28;20771;-64
2021/01/24 13:38:25;;;;;;;25.00;17.50;;;3.60;99.90;;;;;;6937766;28;20415;-63
2021/01/24 13:41:46;;;;;;;25.70;17.77;;;3.60;99.90;;;;;;6913920;28;20513;-64
2021/01/24 13:45:08;;;;;;;26.92;17.70;;;3.60;99.90;;;;;;6914788;28;20403;-64
2021/01/24 13:48:29;;;;;;;26.10;17.67;;;3.70;99.90;;;;;;6921278;28;20407;-64
2021/01/24 13:51:50;;;;;;;28.13;18.25;;;3.70;99.90;;;;;;6946923;28;20471;-63
2021/01/24 13:55:11;;;;;;;27.38;18.20;;;3.80;99.90;;;;;;6944275;28;20399;-63
2021/01/24 13:58:32;;;;;;;24.45;16.77;;;3.90;99.90;;;;;;6922556;28;20409;-62
2021/01/24 14:01:54;;;;;;;25.48;17.58;;;3.80;99.90;;;;;;6932935;28;20850;-64
2021/01/24 14:05:16;;;;;;;28.38;20.33;;;3.70;99.90;;;;;;6924646;28;20407;-64
2021/01/24 14:08:37;;;;;;;28.75;20.48;;;3.70;99.90;;;;;;6939633;28;20426;-64
2021/01/24 14:11:58;;;;;;;26.92;17.95;;;3.70;99.90;;;;;;6924366;28;20414;-65
2021/01/24 14:15:18;;;;;;;24.90;16.47;;;3.80;99.90;;;;;;6924959;28;20760;-65
2021/01/24 14:18:41;;;;;;;27.63;17.93;;;3.80;99.90;;;;;;6944137;28;20841;-64
2021/01/24 14:22:02;;;;;;;25.98;16.90;;;3.70;99.90;;;;;;6927124;28;20458;-64
2021/01/24 14:25:23;;;;;;;25.25;17.20;;;3.60;99.90;;;;;;6941507;28;20486;-64
2021/01/24 14:28:44;;;;;;;26.98;17.80;;;3.50;99.90;;;;;;6926545;28;20407;-60
2021/01/24 14:32:05;;;;;;;26.27;16.93;;;3.40;99.90;;;;;;6925057;28;20421;-64
2021/01/24 14:35:26;;;;;;;23.05;16.42;;;3.50;99.90;;;;;;6924437;28;20422;-63
2021/01/24 14:38:49;;;;;;;25.63;16.95;;;3.30;99.90;;;;;;6921543;28;20396;-64
2021/01/24 14:42:09;;;;;;;25.38;16.88;;;3.30;99.90;;;;;;6941394;28;20686;-63
2021/01/24 14:45:34;;;;;;;25.77;17.10;;;3.20;99.90;;;;;;6937290;28;20413;-63
2021/01/24 14:48:56;;;;;;;26.77;17.20;;;3.30;99.90;;;;;;6938716;28;21212;-63
2021/01/24 14:52:17;;;;;;;24.85;16.92;;;3.40;99.90;;;;;;6941806;28;20479;-62
2021/01/24 14:55:38;;;;;;;25.35;17.20;;;3.20;99.90;;;;;;6947027;28;20536;-63
2021/01/24 14:58:59;;;;;;;25.50;16.87;;;3.10;99.90;;;;;;6963743;28;20465;-65
2021/01/24 15:02:21;;;;;;;26.37;17.03;;;3.00;99.90;;;;;;6913769;28;20421;-65
2021/01/24 15:05:42;;;;;;;26.40;16.60;;;2.80;99.90;;;;;;6928343;28;20403;-65
2021/01/24 15:09:04;;;;;;;25.25;16.77;;;2.70;99.90;;;;;;6928144;28;20947;-64
2021/01/24 15:12:25;;;;;;;25.27;16.60;;;2.70;99.90;;;;;;6923823;28;20410;-64
2021/01/24 15:15:46;;;;;;;25.00;16.38;;;2.70;99.90;;;;;;6939746;28;20398;-64
2021/01/24 15:19:07;;;;;;;23.90;16.15;;;2.70;99.90;;;;;;6937572;28;20414;-65
2021/01/24 15:22:28;;;;;;;24.38;16.95;;;2.60;99.90;;;;;;6929310;28;20496;-65
2021/01/24 15:25:48;;;;;;;24.15;16.00;;;2.60;99.90;;;;;;6927245;28;20918;-65
2021/01/24 15:29:09;;;;;;;24.40;16.58;;;2.50;99.90;;;;;;6943987;28;20489;-66
2021/01/24 15:32:30;;;;;;;23.98;15.77;;;2.40;99.90;;;;;;6923963;28;20403;-65
2021/01/24 15:35:51;;;;;;;25.50;15.60;;;2.30;99.90;;;;;;6923466;28;20403;-66
2021/01/24 15:39:12;;;;;;;23.03;14.50;;;2.50;99.90;;;;;;6947114;28;20503;-64
2021/01/24 15:42:33;;;;;;;25.10;15.80;;;2.50;99.90;;;;;;6939514;28;20493;-63
2021/01/24 15:45:54;;;;;;;25.33;15.70;;;2.60;99.90;;;;;;6927148;28;20399;-65
2021/01/24 15:49:15;;;;;;;24.57;15.93;;;2.50;99.90;;;;;;6923200;28;20844;-65
2021/01/24 15:52:36;;;;;;;24.93;16.03;;;2.50;99.90;;;;;;6950668;28;20489;-65
2021/01/24 15:55:56;;;;;;;24.05;15.85;;;2.60;99.90;;;;;;6945673;28;20415;-64
2021/01/24 15:59:17;;;;;;;21.73;14.63;;;2.50;99.90;;;;;;6922681;28;20469;-64
2021/01/24 16:02:38;;;;;;;23.67;15.20;;;2.50;99.90;;;;;;6924123;28;20422;-64
2021/01/24 16:05:59;;;;;;;21.95;14.25;;;2.50;99.90;;;;;;6931523;28;20434;-64
2021/01/24 16:09:20;;;;;;;22.27;14.57;;;2.50;99.90;;;;;;6934147;28;20411;-65
2021/01/24 16:12:41;;;;;;;21.03;14.33;;;2.50;99.90;;;;;;6922030;28;20418;-65
2021/01/24 16:16:02;;;;;;;22.65;15.00;;;2.50;99.90;;;;;;6917842;28;20905;-65
2021/01/24 16:19:24;;;;;;;21.55;14.40;;;2.40;99.90;;;;;;6916296;28;20410;-63
2021/01/24 16:22:45;;;;;;;22.88;14.82;;;2.40;99.90;;;;;;6935561;28;20919;-65
2021/01/24 16:26:06;;;;;;;22.35;15.13;;;2.40;99.90;;;;;;6942401;28;20403;-65
2021/01/24 16:29:27;;;;;;;27.23;20.67;;;2.40;99.90;;;;;;6945819;28;20644;-65
2021/01/24 16:32:48;;;;;;;26.80;18.95;;;2.30;99.90;;;;;;6935232;28;20498;-65
2021/01/24 16:36:09;;;;;;;21.65;14.00;;;2.40;99.90;;;;;;6931403;28;20456;-65
2021/01/24 16:39:32;;;;;;;20.92;14.02;;;2.20;99.90;;;;;;6929101;28;20933;-65
2021/01/24 16:42:53;;;;;;;25.02;16.45;;;2.20;99.90;;;;;;6926269;28;20788;-66
2021/01/24 16:46:14;;;;;;;27.20;17.57;;;2.40;99.90;;;;;;6930440;28;20429;-66
2021/01/24 16:49:35;;;;;;;28.60;18.43;;;2.40;99.90;;;;;;6963408;28;20403;-65
2021/01/24 16:52:56;;;;;;;47.00;30.70;;;2.40;99.90;;;;;;6964053;28;20400;-64
2021/01/24 16:56:17;;;;;;;44.38;28.73;;;2.40;99.90;;;;;;6929579;28;20403;-64
2021/01/24 16:59:37;;;;;;;35.75;23.75;;;2.30;99.90;;;;;;6923335;28;20422;-64
2021/01/24 17:02:58;;;;;;;33.50;22.67;;;2.20;99.90;;;;;;6939139;28;20464;-63
2021/01/24 17:06:19;;;;;;;30.15;20.02;;;2.20;99.90;;;;;;6934156;28;20401;-64
2021/01/24 17:09:41;;;;;;;24.85;16.90;;;2.10;99.90;;;;;;6934640;28;20454;-64
2021/01/24 17:13:02;;;;;;;26.30;16.43;;;2.10;99.90;;;;;;6928551;28;20419;-65
2021/01/24 17:16:23;;;;;;;28.80;19.00;;;2.30;99.90;;;;;;6951521;28;20413;-64